sensor_id;sensor_type;location;lat;lon;timestamp;temperature;humidity
16267;DHT22;8241;48.786;9.250;2022-11-15T00:01:29;9.20;99.90
16267;DHT22;8241;48.786;9.250;2022-11-15T00:04:16;9.10;99.90
16267;DHT22;8241;48.786;9.250;2022-11-15T00:07:01;9.10;99.90
16267;DHT22;8241;48.786;9.250;2022-11-15T00:09:46;9.00;99.90
16267;DHT22;8241;48.786;9.250;2022-11-15T00:12:31;9.00;99.90
16267;DHT22;8241;48.786;9.250;2022-11-15T00:15:16;9.10;99.90
16267;DHT22;8241;48.786;9.250;2022-11-15T00:18:01;9.10;99.90
16267;DHT22;8241;48.786;9.250;2022-11-15T00:20:48;9.20;99.90
16267;DHT22;8241;48.786;9.250;2022-11-15T00:23:34;9.20;99.90
16267;DHT22;8241;48.786;9.250;2022-11-15T00:26:21;9.30;99.90
16267;DHT22;8241;48.786;9.250;2022-11-15T00:29:06;9.30;99.90
16267;DHT22;8241;48.786;9.250;2022-11-15T00:31:52;9.30;99.90
16267;DHT22;8241;48.786;9.250;2022-11-15T00:34:37;9.40;99.90
16267;DHT22;8241;48.786;9.250;2022-11-15T00:37:38;9.40;99.90
16267;DHT22;8241;48.786;9.250;2022-11-15T00:40:23;9.30;99.90
16267;DHT22;8241;48.786;9.250;2022-11-15T00:43:08;9.20;99.90
16267;DHT22;8241;48.786;9.250;2022-11-15T00:45:53;9.10;99.90
16267;DHT22;8241;48.786;9.250;2022-11-15T00:48:39;9.00;99.90
16267;DHT22;8241;48.786;9.250;2022-11-15T00:51:24;8.90;99.90
16267;DHT22;8241;48.786;9.250;2022-11-15T00:54:11;8.90;99.90
16267;DHT22;8241;48.786;9.250;2022-11-15T01:00:06;8.70;99.90
16267;DHT22;8241;48.786;9.250;2022-11-15T01:09:42;8.50;99.90
16267;DHT22;8241;48.786;9.250;2022-11-15T01:12:35;8.60;99.90
16267;DHT22;8241;48.786;9.250;2022-11-15T01:15:21;8.50;99.90
16267;DHT22;8241;48.786;9.250;2022-11-15T01:18:06;8.60;99.90
16267;DHT22;8241;48.786;9.250;2022-11-15T01:20:51;8.70;99.90
16267;DHT22;8241;48.786;9.250;2022-11-15T01:23:36;8.90;99.90
16267;DHT22;8241;48.786;9.250;2022-11-15T01:26:24;8.90;99.90
16267;DHT22;8241;48.786;9.250;2022-11-15T01:38:35;8.70;99.90
16267;DHT22;8241;48.786;9.250;2022-11-15T01:44:48;8.60;99.90
16267;DHT22;8241;48.786;9.250;2022-11-15T01:47:45;8.60;99.90
16267;DHT22;8241;48.786;9.250;2022-11-15T01:50:42;8.50;99.90
16267;DHT22;8241;48.786;9.250;2022-11-15T01:53:29;8.50;99.90
16267;DHT22;8241;48.786;9.250;2022-11-15T01:56:15;8.40;99.90
16267;DHT22;8241;48.786;9.250;2022-11-15T01:59:02;8.50;99.90
16267;DHT22;8241;48.786;9.250;2022-11-15T02:01:50;8.60;99.90
16267;DHT22;8241;48.786;9.250;2022-11-15T02:04:37;8.60;99.90
16267;DHT22;8241;48.786;9.250;2022-11-15T02:07:26;8.50;99.90
16267;DHT22;8241;48.786;9.250;2022-11-15T02:10:14;8.50;99.90
16267;DHT22;8241;48.786;9.250;2022-11-15T02:13:17;8.50;99.90
16267;DHT22;8241;48.786;9.250;2022-11-15T02:16:04;8.50;99.90
16267;DHT22;8241;48.786;9.250;2022-11-15T02:22:37;8.60;99.90
16267;DHT22;8241;48.786;9.250;2022-11-15T02:28:59;8.50;99.90
16267;DHT22;8241;48.786;9.250;2022-11-15T02:31:50;8.50;99.90
16267;DHT22;8241;48.786;9.250;2022-11-15T02:37:43;8.40;99.90
16267;DHT22;8241;48.786;9.250;2022-11-15T02:40:34;8.40;99.90
16267;DHT22;8241;48.786;9.250;2022-11-15T02:43:24;8.30;99.90
16267;DHT22;8241;48.786;9.250;2022-11-15T02:46:31;8.30;99.90
16267;DHT22;8241;48.786;9.250;2022-11-15T02:49:37;8.30;99.90
16267;DHT22;8241;48.786;9.250;2022-11-15T02:52:24;8.20;99.90
16267;DHT22;8241;48.786;9.250;2022-11-15T02:55:24;8.20;99.90
16267;DHT22;8241;48.786;9.250;2022-11-15T02:58:18;8.20;99.90
16267;DHT22;8241;48.786;9.250;2022-11-15T03:01:04;8.20;99.90
16267;DHT22;8241;48.786;9.250;2022-11-15T03:03:55;8.20;99.90
16267;DHT22;8241;48.786;9.250;2022-11-15T03:06:58;8.00;99.90
16267;DHT22;8241;48.786;9.250;2022-11-15T03:09:50;8.00;99.90
16267;DHT22;8241;48.786;9.250;2022-11-15T03:12:54;7.90;99.90
16267;DHT22;8241;48.786;9.250;2022-11-15T03:15:41;7.90;99.90
16267;DHT22;8241;48.786;9.250;2022-11-15T03:21:37;7.80;99.90
16267;DHT22;8241;48.786;9.250;2022-11-15T03:30:32;7.70;99.90
16267;DHT22;8241;48.786;9.250;2022-11-15T03:36:36;7.60;99.90
16267;DHT22;8241;48.786;9.250;2022-11-15T03:39:22;7.60;99.90
16267;DHT22;8241;48.786;9.250;2022-11-15T03:42:12;7.50;99.90
16267;DHT22;8241;48.786;9.250;2022-11-15T03:45:01;7.50;99.90
16267;DHT22;8241;48.786;9.250;2022-11-15T03:47:51;7.50;99.90
16267;DHT22;8241;48.786;9.250;2022-11-15T03:50:37;7.50;99.90
16267;DHT22;8241;48.786;9.250;2022-11-15T03:53:22;7.70;99.90
16267;DHT22;8241;48.786;9.250;2022-11-15T03:56:08;7.60;99.90
16267;DHT22;8241;48.786;9.250;2022-11-15T03:58:53;7.60;99.90
16267;DHT22;8241;48.786;9.250;2022-11-15T04:01:39;7.50;99.90
16267;DHT22;8241;48.786;9.250;2022-11-15T04:04:25;7.50;99.90
16267;DHT22;8241;48.786;9.250;2022-11-15T04:07:11;7.40;99.90
16267;DHT22;8241;48.786;9.250;2022-11-15T04:09:56;7.50;99.90
16267;DHT22;8241;48.786;9.250;2022-11-15T04:15:36;7.30;99.90
16267;DHT22;8241;48.786;9.250;2022-11-15T04:18:21;7.30;99.90
16267;DHT22;8241;48.786;9.250;2022-11-15T04:21:09;7.30;99.90
16267;DHT22;8241;48.786;9.250;2022-11-15T04:24:12;7.40;99.90
16267;DHT22;8241;48.786;9.250;2022-11-15T04:27:02;7.40;99.90
16267;DHT22;8241;48.786;9.250;2022-11-15T04:29:48;7.50;99.90
16267;DHT22;8241;48.786;9.250;2022-11-15T04:32:34;7.50;99.90
16267;DHT22;8241;48.786;9.250;2022-11-15T04:35:22;7.50;99.90
16267;DHT22;8241;48.786;9.250;2022-11-15T04:38:09;7.50;99.90
16267;DHT22;8241;48.786;9.250;2022-11-15T04:40:54;7.40;99.90
16267;DHT22;8241;48.786;9.250;2022-11-15T04:50:06;7.40;99.90
16267;DHT22;8241;48.786;9.250;2022-11-15T04:52:52;7.40;99.90
16267;DHT22;8241;48.786;9.250;2022-11-15T04:55:39;7.40;99.90
16267;DHT22;8241;48.786;9.250;2022-11-15T04:58:24;7.40;99.90
16267;DHT22;8241;48.786;9.250;2022-11-15T05:01:09;7.40;99.90
16267;DHT22;8241;48.786;9.250;2022-11-15T05:03:56;7.40;99.90
16267;DHT22;8241;48.786;9.250;2022-11-15T05:10:18;7.40;99.90
16267;DHT22;8241;48.786;9.250;2022-11-15T05:13:05;7.30;99.90
16267;DHT22;8241;48.786;9.250;2022-11-15T05:15:50;7.30;99.90
16267;DHT22;8241;48.786;9.250;2022-11-15T05:18:35;7.30;99.90
16267;DHT22;8241;48.786;9.250;2022-11-15T05:21:30;7.30;99.90
16267;DHT22;8241;48.786;9.250;2022-11-15T05:24:19;7.30;99.90
16267;DHT22;8241;48.786;9.250;2022-11-15T05:27:05;7.40;99.90
16267;DHT22;8241;48.786;9.250;2022-11-15T05:29:52;7.30;99.90
16267;DHT22;8241;48.786;9.250;2022-11-15T05:32:37;7.30;99.90
16267;DHT22;8241;48.786;9.250;2022-11-15T05:35:27;7.20;99.90
16267;DHT22;8241;48.786;9.250;2022-11-15T05:38:13;7.10;99.90
16267;DHT22;8241;48.786;9.250;2022-11-15T05:40:58;7.10;99.90
16267;DHT22;8241;48.786;9.250;2022-11-15T05:43:46;7.00;99.90
16267;DHT22;8241;48.786;9.250;2022-11-15T05:46:34;7.00;99.90
16267;DHT22;8241;48.786;9.250;2022-11-15T05:49:21;7.00;99.90
16267;DHT22;8241;48.786;9.250;2022-11-15T06:05:16;7.00;99.90
16267;DHT22;8241;48.786;9.250;2022-11-15T06:08:04;7.00;99.90
16267;DHT22;8241;48.786;9.250;2022-11-15T06:11:02;6.90;99.90
16267;DHT22;8241;48.786;9.250;2022-11-15T06:13:55;6.90;99.90
16267;DHT22;8241;48.786;9.250;2022-11-15T06:16:43;6.90;99.90
16267;DHT22;8241;48.786;9.250;2022-11-15T06:19:35;6.90;99.90
16267;DHT22;8241;48.786;9.250;2022-11-15T06:25:47;7.00;99.90
16267;DHT22;8241;48.786;9.250;2022-11-15T06:28:33;7.00;99.90
16267;DHT22;8241;48.786;9.250;2022-11-15T06:31:29;7.10;99.90
16267;DHT22;8241;48.786;9.250;2022-11-15T06:37:15;7.10;99.90
16267;DHT22;8241;48.786;9.250;2022-11-15T06:43:40;7.20;99.90
16267;DHT22;8241;48.786;9.250;2022-11-15T06:46:35;7.10;99.90
16267;DHT22;8241;48.786;9.250;2022-11-15T06:49:20;7.10;99.90
16267;DHT22;8241;48.786;9.250;2022-11-15T06:52:05;7.10;99.90
16267;DHT22;8241;48.786;9.250;2022-11-15T06:54:58;7.00;99.90
16267;DHT22;8241;48.786;9.250;2022-11-15T06:57:48;7.00;99.90
16267;DHT22;8241;48.786;9.250;2022-11-15T07:00:37;6.90;99.90
16267;DHT22;8241;48.786;9.250;2022-11-15T07:06:12;6.90;99.90
16267;DHT22;8241;48.786;9.250;2022-11-15T07:09:06;7.00;99.90
16267;DHT22;8241;48.786;9.250;2022-11-15T07:11:55;7.00;99.90
16267;DHT22;8241;48.786;9.250;2022-11-15T07:21:34;7.20;99.90
16267;DHT22;8241;48.786;9.250;2022-11-15T07:24:19;7.30;99.90
16267;DHT22;8241;48.786;9.250;2022-11-15T07:27:05;7.40;99.90
16267;DHT22;8241;48.786;9.250;2022-11-15T07:30:05;7.40;99.90
16267;DHT22;8241;48.786;9.250;2022-11-15T07:35:42;7.50;99.90
16267;DHT22;8241;48.786;9.250;2022-11-15T07:38:31;7.70;99.90
16267;DHT22;8241;48.786;9.250;2022-11-15T07:41:29;7.70;99.90
16267;DHT22;8241;48.786;9.250;2022-11-15T07:44:14;7.80;99.90
16267;DHT22;8241;48.786;9.250;2022-11-15T07:47:00;7.90;99.90
16267;DHT22;8241;48.786;9.250;2022-11-15T07:49:45;8.00;99.90
16267;DHT22;8241;48.786;9.250;2022-11-15T07:52:32;8.00;99.90
16267;DHT22;8241;48.786;9.250;2022-11-15T07:55:27;8.10;99.90
16267;DHT22;8241;48.786;9.250;2022-11-15T07:58:13;8.20;99.90
16267;DHT22;8241;48.786;9.250;2022-11-15T08:01:05;8.30;99.90
16267;DHT22;8241;48.786;9.250;2022-11-15T08:06:40;8.50;99.90
16267;DHT22;8241;48.786;9.250;2022-11-15T08:09:38;8.60;99.90
16267;DHT22;8241;48.786;9.250;2022-11-15T08:12:24;8.70;99.90
16267;DHT22;8241;48.786;9.250;2022-11-15T08:15:10;8.70;99.90
16267;DHT22;8241;48.786;9.250;2022-11-15T08:17:55;8.80;99.90
16267;DHT22;8241;48.786;9.250;2022-11-15T08:20:41;8.90;99.90
16267;DHT22;8241;48.786;9.250;2022-11-15T08:23:27;9.00;99.90
16267;DHT22;8241;48.786;9.250;2022-11-15T08:26:12;9.10;99.90
16267;DHT22;8241;48.786;9.250;2022-11-15T08:28:59;9.10;99.90
16267;DHT22;8241;48.786;9.250;2022-11-15T08:31:49;9.20;99.90
16267;DHT22;8241;48.786;9.250;2022-11-15T08:34:34;9.20;99.90
16267;DHT22;8241;48.786;9.250;2022-11-15T08:37:19;9.20;99.90
16267;DHT22;8241;48.786;9.250;2022-11-15T08:43:19;9.30;99.90
16267;DHT22;8241;48.786;9.250;2022-11-15T08:46:07;9.30;99.90
16267;DHT22;8241;48.786;9.250;2022-11-15T08:49:08;9.30;99.90
16267;DHT22;8241;48.786;9.250;2022-11-15T08:51:53;9.40;99.90
16267;DHT22;8241;48.786;9.250;2022-11-15T08:54:38;9.50;99.90
16267;DHT22;8241;48.786;9.250;2022-11-15T08:57:27;9.60;99.90
16267;DHT22;8241;48.786;9.250;2022-11-15T09:00:14;9.60;99.90
16267;DHT22;8241;48.786;9.250;2022-11-15T09:03:19;9.70;99.90
16267;DHT22;8241;48.786;9.250;2022-11-15T09:08:54;9.90;99.90
16267;DHT22;8241;48.786;9.250;2022-11-15T09:11:41;10.10;99.90
16267;DHT22;8241;48.786;9.250;2022-11-15T09:17:57;10.40;99.90
16267;DHT22;8241;48.786;9.250;2022-11-15T09:20:46;10.60;99.90
16267;DHT22;8241;48.786;9.250;2022-11-15T09:23:33;10.70;99.90
16267;DHT22;8241;48.786;9.250;2022-11-15T09:26:20;10.90;99.90
16267;DHT22;8241;48.786;9.250;2022-11-15T09:29:06;11.00;99.90
16267;DHT22;8241;48.786;9.250;2022-11-15T09:32:02;11.10;99.90
16267;DHT22;8241;48.786;9.250;2022-11-15T09:34:47;11.20;99.90
16267;DHT22;8241;48.786;9.250;2022-11-15T09:37:34;11.40;99.90
16267;DHT22;8241;48.786;9.250;2022-11-15T09:40:20;11.40;99.90
16267;DHT22;8241;48.786;9.250;2022-11-15T09:43:15;11.50;99.90
16267;DHT22;8241;48.786;9.250;2022-11-15T09:46:10;11.60;99.90
16267;DHT22;8241;48.786;9.250;2022-11-15T09:49:19;11.70;99.90
16267;DHT22;8241;48.786;9.250;2022-11-15T09:52:08;11.70;99.90
16267;DHT22;8241;48.786;9.250;2022-11-15T09:54:38;11.80;99.90
16267;DHT22;8241;48.786;9.250;2022-11-15T09:57:09;11.90;99.90
16267;DHT22;8241;48.786;9.250;2022-11-15T09:59:43;12.00;99.90
16267;DHT22;8241;48.786;9.250;2022-11-15T10:02:21;12.20;99.90
16267;DHT22;8241;48.786;9.250;2022-11-15T10:05:09;12.30;99.90
16267;DHT22;8241;48.786;9.250;2022-11-15T10:07:37;12.40;99.90
16267;DHT22;8241;48.786;9.250;2022-11-15T10:10:11;12.60;99.90
16267;DHT22;8241;48.786;9.250;2022-11-15T10:12:51;12.70;99.90
16267;DHT22;8241;48.786;9.250;2022-11-15T10:15:18;12.70;99.90
16267;DHT22;8241;48.786;9.250;2022-11-15T10:17:57;12.70;99.90
16267;DHT22;8241;48.786;9.250;2022-11-15T10:20:28;12.70;99.90
16267;DHT22;8241;48.786;9.250;2022-11-15T10:22:55;12.70;99.90
16267;DHT22;8241;48.786;9.250;2022-11-15T10:25:25;12.70;99.90
16267;DHT22;8241;48.786;9.250;2022-11-15T10:27:54;12.70;99.90
16267;DHT22;8241;48.786;9.250;2022-11-15T10:30:21;12.70;99.90
16267;DHT22;8241;48.786;9.250;2022-11-15T10:32:48;12.60;99.90
16267;DHT22;8241;48.786;9.250;2022-11-15T10:35:20;12.70;99.90
16267;DHT22;8241;48.786;9.250;2022-11-15T10:37:56;12.70;99.90
16267;DHT22;8241;48.786;9.250;2022-11-15T10:43:34;12.70;99.90
16267;DHT22;8241;48.786;9.250;2022-11-15T10:46:04;12.90;99.90
16267;DHT22;8241;48.786;9.250;2022-11-15T10:48:44;12.90;99.90
16267;DHT22;8241;48.786;9.250;2022-11-15T10:51:23;12.80;99.90
16267;DHT22;8241;48.786;9.250;2022-11-15T10:54:03;12.80;99.90
16267;DHT22;8241;48.786;9.250;2022-11-15T10:56:33;12.80;99.90
16267;DHT22;8241;48.786;9.250;2022-11-15T10:59:16;12.70;99.90
16267;DHT22;8241;48.786;9.250;2022-11-15T11:01:47;12.70;99.90
16267;DHT22;8241;48.786;9.250;2022-11-15T11:07:04;12.90;99.90
16267;DHT22;8241;48.786;9.250;2022-11-15T11:09:48;12.90;99.90
16267;DHT22;8241;48.786;9.250;2022-11-15T11:12:26;12.90;99.90
16267;DHT22;8241;48.786;9.250;2022-11-15T11:14:55;12.70;99.90
16267;DHT22;8241;48.786;9.250;2022-11-15T11:17:25;12.70;99.90
16267;DHT22;8241;48.786;9.250;2022-11-15T11:19:59;12.70;99.90
16267;DHT22;8241;48.786;9.250;2022-11-15T11:22:29;12.70;99.90
16267;DHT22;8241;48.786;9.250;2022-11-15T11:25:04;12.70;99.90
16267;DHT22;8241;48.786;9.250;2022-11-15T11:27:36;12.70;99.90
16267;DHT22;8241;48.786;9.250;2022-11-15T11:30:10;12.70;99.90
16267;DHT22;8241;48.786;9.250;2022-11-15T11:35:28;13.00;99.90
16267;DHT22;8241;48.786;9.250;2022-11-15T11:38:00;13.10;99.90
16267;DHT22;8241;48.786;9.250;2022-11-15T11:40:30;13.20;99.90
16267;DHT22;8241;48.786;9.250;2022-11-15T11:43:01;13.20;99.90
16267;DHT22;8241;48.786;9.250;2022-11-15T11:45:44;13.30;99.90
16267;DHT22;8241;48.786;9.250;2022-11-15T11:48:19;13.20;99.90
16267;DHT22;8241;48.786;9.250;2022-11-15T11:50:47;13.20;99.90
16267;DHT22;8241;48.786;9.250;2022-11-15T11:53:15;13.30;99.90
16267;DHT22;8241;48.786;9.250;2022-11-15T11:55:43;13.20;99.90
16267;DHT22;8241;48.786;9.250;2022-11-15T12:01:03;13.30;99.90
16267;DHT22;8241;48.786;9.250;2022-11-15T12:03:34;13.30;99.90
16267;DHT22;8241;48.786;9.250;2022-11-15T12:06:05;13.30;99.90
16267;DHT22;8241;48.786;9.250;2022-11-15T12:11:42;13.40;99.90
16267;DHT22;8241;48.786;9.250;2022-11-15T12:20:51;13.90;99.90
16267;DHT22;8241;48.786;9.250;2022-11-15T12:23:27;14.00;99.90
16267;DHT22;8241;48.786;9.250;2022-11-15T12:25:59;13.90;99.90
16267;DHT22;8241;48.786;9.250;2022-11-15T12:28:38;13.90;99.90
16267;DHT22;8241;48.786;9.250;2022-11-15T12:31:15;13.70;99.90
16267;DHT22;8241;48.786;9.250;2022-11-15T12:33:44;13.60;99.90
16267;DHT22;8241;48.786;9.250;2022-11-15T12:38:57;13.50;99.90
16267;DHT22;8241;48.786;9.250;2022-11-15T12:41:38;13.50;99.90
16267;DHT22;8241;48.786;9.250;2022-11-15T12:44:22;13.50;99.90
16267;DHT22;8241;48.786;9.250;2022-11-15T12:47:03;13.50;99.90
16267;DHT22;8241;48.786;9.250;2022-11-15T12:49:43;13.60;99.90
16267;DHT22;8241;48.786;9.250;2022-11-15T12:52:23;13.60;99.90
16267;DHT22;8241;48.786;9.250;2022-11-15T12:54:51;13.70;99.90
16267;DHT22;8241;48.786;9.250;2022-11-15T12:57:27;13.70;99.90
16267;DHT22;8241;48.786;9.250;2022-11-15T13:14:53;13.60;99.90
16267;DHT22;8241;48.786;9.250;2022-11-15T13:17:27;13.40;99.90
16267;DHT22;8241;48.786;9.250;2022-11-15T13:19:57;13.60;99.90
16267;DHT22;8241;48.786;9.250;2022-11-15T13:26:01;13.50;99.90
16267;DHT22;8241;48.786;9.250;2022-11-15T13:28:32;13.50;99.90
16267;DHT22;8241;48.786;9.250;2022-11-15T13:34:16;13.40;99.90
16267;DHT22;8241;48.786;9.250;2022-11-15T13:36:47;13.40;99.90
16267;DHT22;8241;48.786;9.250;2022-11-15T13:39:31;13.40;99.90
16267;DHT22;8241;48.786;9.250;2022-11-15T13:41:59;13.30;99.90
16267;DHT22;8241;48.786;9.250;2022-11-15T13:44:30;13.30;99.90
16267;DHT22;8241;48.786;9.250;2022-11-15T13:49:34;13.30;99.90
16267;DHT22;8241;48.786;9.250;2022-11-15T13:54:58;13.40;99.90
16267;DHT22;8241;48.786;9.250;2022-11-15T14:00:06;13.30;99.90
16267;DHT22;8241;48.786;9.250;2022-11-15T14:02:39;13.30;99.90
16267;DHT22;8241;48.786;9.250;2022-11-15T14:05:14;13.20;99.90
16267;DHT22;8241;48.786;9.250;2022-11-15T14:07:52;13.20;99.90
16267;DHT22;8241;48.786;9.250;2022-11-15T14:10:27;13.10;99.90
16267;DHT22;8241;48.786;9.250;2022-11-15T14:12:55;13.20;99.90
16267;DHT22;8241;48.786;9.250;2022-11-15T14:15:36;13.10;99.90
16267;DHT22;8241;48.786;9.250;2022-11-15T14:18:04;13.00;99.90
16267;DHT22;8241;48.786;9.250;2022-11-15T14:20:36;13.00;99.90
16267;DHT22;8241;48.786;9.250;2022-11-15T14:23:05;13.00;99.90
16267;DHT22;8241;48.786;9.250;2022-11-15T14:25:32;13.10;99.90
16267;DHT22;8241;48.786;9.250;2022-11-15T14:28:10;13.10;99.90
16267;DHT22;8241;48.786;9.250;2022-11-15T14:30:41;13.00;99.90
16267;DHT22;8241;48.786;9.250;2022-11-15T14:33:19;12.80;99.90
16267;DHT22;8241;48.786;9.250;2022-11-15T14:35:48;12.70;99.90
16267;DHT22;8241;48.786;9.250;2022-11-15T14:38:15;12.70;99.90
16267;DHT22;8241;48.786;9.250;2022-11-15T14:43:47;12.60;99.90
16267;DHT22;8241;48.786;9.250;2022-11-15T14:46:19;12.60;99.90
16267;DHT22;8241;48.786;9.250;2022-11-15T14:48:46;12.50;99.90
16267;DHT22;8241;48.786;9.250;2022-11-15T14:51:15;12.40;99.90
16267;DHT22;8241;48.786;9.250;2022-11-15T14:53:54;12.40;99.90
16267;DHT22;8241;48.786;9.250;2022-11-15T14:56:29;12.30;99.90
16267;DHT22;8241;48.786;9.250;2022-11-15T14:59:04;12.40;99.90
16267;DHT22;8241;48.786;9.250;2022-11-15T15:01:31;12.40;99.90
16267;DHT22;8241;48.786;9.250;2022-11-15T15:07:06;12.30;99.90
16267;DHT22;8241;48.786;9.250;2022-11-15T15:09:37;12.30;99.90
16267;DHT22;8241;48.786;9.250;2022-11-15T15:12:11;12.30;99.90
16267;DHT22;8241;48.786;9.250;2022-11-15T15:17:26;12.30;99.90
16267;DHT22;8241;48.786;9.250;2022-11-15T15:20:00;12.30;99.90
16267;DHT22;8241;48.786;9.250;2022-11-15T15:22:28;12.20;99.90
16267;DHT22;8241;48.786;9.250;2022-11-15T15:24:55;12.20;99.90
16267;DHT22;8241;48.786;9.250;2022-11-15T15:27:22;12.30;99.90
16267;DHT22;8241;48.786;9.250;2022-11-15T15:29:52;12.30;99.90
16267;DHT22;8241;48.786;9.250;2022-11-15T15:32:19;12.30;99.90
16267;DHT22;8241;48.786;9.250;2022-11-15T15:34:51;12.30;99.90
16267;DHT22;8241;48.786;9.250;2022-11-15T15:37:22;12.40;99.90
16267;DHT22;8241;48.786;9.250;2022-11-15T15:42:44;12.30;99.90
16267;DHT22;8241;48.786;9.250;2022-11-15T15:45:11;12.40;99.90
16267;DHT22;8241;48.786;9.250;2022-11-15T15:47:38;12.40;99.90
16267;DHT22;8241;48.786;9.250;2022-11-15T15:50:09;12.40;99.90
16267;DHT22;8241;48.786;9.250;2022-11-15T15:52:49;12.30;99.90
16267;DHT22;8241;48.786;9.250;2022-11-15T15:55:16;12.30;99.90
16267;DHT22;8241;48.786;9.250;2022-11-15T16:00:16;12.30;99.90
16267;DHT22;8241;48.786;9.250;2022-11-15T16:02:44;12.20;99.90
16267;DHT22;8241;48.786;9.250;2022-11-15T16:05:19;12.20;99.90
16267;DHT22;8241;48.786;9.250;2022-11-15T16:07:46;12.20;99.90
16267;DHT22;8241;48.786;9.250;2022-11-15T16:16:16;12.10;99.90
16267;DHT22;8241;48.786;9.250;2022-11-15T16:18:42;12.10;99.90
16267;DHT22;8241;48.786;9.250;2022-11-15T16:21:09;12.10;99.90
16267;DHT22;8241;48.786;9.250;2022-11-15T16:23:36;12.10;99.90
16267;DHT22;8241;48.786;9.250;2022-11-15T16:26:04;12.10;99.90
16267;DHT22;8241;48.786;9.250;2022-11-15T16:31:23;12.00;99.90
16267;DHT22;8241;48.786;9.250;2022-11-15T16:33:50;12.00;99.90
16267;DHT22;8241;48.786;9.250;2022-11-15T16:36:25;12.10;99.90
16267;DHT22;8241;48.786;9.250;2022-11-15T16:38:54;12.00;99.90
16267;DHT22;8241;48.786;9.250;2022-11-15T16:41:21;12.10;99.90
16267;DHT22;8241;48.786;9.250;2022-11-15T16:43:48;12.00;99.90
16267;DHT22;8241;48.786;9.250;2022-11-15T16:46:20;12.00;99.90
16267;DHT22;8241;48.786;9.250;2022-11-15T16:48:49;12.10;99.90
16267;DHT22;8241;48.786;9.250;2022-11-15T16:51:18;12.10;99.90
16267;DHT22;8241;48.786;9.250;2022-11-15T16:53:45;12.10;99.90
16267;DHT22;8241;48.786;9.250;2022-11-15T16:58:48;12.20;99.90
16267;DHT22;8241;48.786;9.250;2022-11-15T17:01:17;12.20;99.90
16267;DHT22;8241;48.786;9.250;2022-11-15T17:03:45;12.20;99.90
16267;DHT22;8241;48.786;9.250;2022-11-15T17:06:13;12.20;99.90
16267;DHT22;8241;48.786;9.250;2022-11-15T17:08:42;12.20;99.90
16267;DHT22;8241;48.786;9.250;2022-11-15T17:14:12;12.20;99.90
16267;DHT22;8241;48.786;9.250;2022-11-15T17:25:59;12.10;99.90
16267;DHT22;8241;48.786;9.250;2022-11-15T17:38:01;12.10;99.90
16267;DHT22;8241;48.786;9.250;2022-11-15T17:40:37;12.10;99.90
16267;DHT22;8241;48.786;9.250;2022-11-15T17:45:49;12.00;99.90
16267;DHT22;8241;48.786;9.250;2022-11-15T17:50:54;12.00;99.90
16267;DHT22;8241;48.786;9.250;2022-11-15T17:55:54;12.00;99.90
16267;DHT22;8241;48.786;9.250;2022-11-15T17:58:21;11.90;99.90
16267;DHT22;8241;48.786;9.250;2022-11-15T18:00:57;12.00;99.90
16267;DHT22;8241;48.786;9.250;2022-11-15T18:03:32;11.90;99.90
16267;DHT22;8241;48.786;9.250;2022-11-15T18:08:58;12.10;99.90
16267;DHT22;8241;48.786;9.250;2022-11-15T18:11:33;12.00;99.90
16267;DHT22;8241;48.786;9.250;2022-11-15T18:14:03;12.00;99.90
16267;DHT22;8241;48.786;9.250;2022-11-15T18:16:32;12.00;99.90
16267;DHT22;8241;48.786;9.250;2022-11-15T18:19:09;12.10;99.90
16267;DHT22;8241;48.786;9.250;2022-11-15T18:21:55;12.10;99.90
16267;DHT22;8241;48.786;9.250;2022-11-15T18:27:25;12.10;99.90
16267;DHT22;8241;48.786;9.250;2022-11-15T18:30:07;12.10;99.90
16267;DHT22;8241;48.786;9.250;2022-11-15T18:38:06;12.10;99.90
16267;DHT22;8241;48.786;9.250;2022-11-15T18:40:34;12.10;99.90
16267;DHT22;8241;48.786;9.250;2022-11-15T18:43:01;12.00;99.90
16267;DHT22;8241;48.786;9.250;2022-11-15T18:45:28;12.00;99.90
16267;DHT22;8241;48.786;9.250;2022-11-15T18:47:55;11.90;99.90
16267;DHT22;8241;48.786;9.250;2022-11-15T18:50:22;11.90;99.90
16267;DHT22;8241;48.786;9.250;2022-11-15T18:52:52;11.90;99.90
16267;DHT22;8241;48.786;9.250;2022-11-15T18:55:30;11.90;99.90
16267;DHT22;8241;48.786;9.250;2022-11-15T19:04:33;11.90;99.90
16267;DHT22;8241;48.786;9.250;2022-11-15T19:07:00;11.80;99.90
16267;DHT22;8241;48.786;9.250;2022-11-15T19:12:38;11.90;99.90
16267;DHT22;8241;48.786;9.250;2022-11-15T19:15:07;12.00;99.90
16267;DHT22;8241;48.786;9.250;2022-11-15T19:17:36;11.90;99.90
16267;DHT22;8241;48.786;9.250;2022-11-15T19:20:03;11.80;99.90
16267;DHT22;8241;48.786;9.250;2022-11-15T19:22:40;11.80;99.90
16267;DHT22;8241;48.786;9.250;2022-11-15T19:25:17;11.70;99.90
16267;DHT22;8241;48.786;9.250;2022-11-15T19:27:46;11.70;99.90
16267;DHT22;8241;48.786;9.250;2022-11-15T19:30:19;11.80;99.90
16267;DHT22;8241;48.786;9.250;2022-11-15T19:32:46;12.00;99.90
16267;DHT22;8241;48.786;9.250;2022-11-15T19:38:06;12.20;99.90
16267;DHT22;8241;48.786;9.250;2022-11-15T19:40:33;12.20;99.90
16267;DHT22;8241;48.786;9.250;2022-11-15T19:46:03;12.30;99.90
16267;DHT22;8241;48.786;9.250;2022-11-15T19:51:30;12.10;99.90
16267;DHT22;8241;48.786;9.250;2022-11-15T19:56:46;12.00;99.90
16267;DHT22;8241;48.786;9.250;2022-11-15T19:59:13;11.90;99.90
16267;DHT22;8241;48.786;9.250;2022-11-15T20:01:59;11.80;99.90
16267;DHT22;8241;48.786;9.250;2022-11-15T20:04:26;11.70;99.90
16267;DHT22;8241;48.786;9.250;2022-11-15T20:06:57;11.60;99.90
16267;DHT22;8241;48.786;9.250;2022-11-15T20:09:23;11.60;99.90
16267;DHT22;8241;48.786;9.250;2022-11-15T20:15:22;11.50;99.90
16267;DHT22;8241;48.786;9.250;2022-11-15T20:18:00;11.40;99.90
16267;DHT22;8241;48.786;9.250;2022-11-15T20:20:41;11.40;99.90
16267;DHT22;8241;48.786;9.250;2022-11-15T20:25:42;11.30;99.90
16267;DHT22;8241;48.786;9.250;2022-11-15T20:31:51;11.30;99.90
16267;DHT22;8241;48.786;9.250;2022-11-15T20:39:53;11.20;99.90
16267;DHT22;8241;48.786;9.250;2022-11-15T20:42:20;11.20;99.90
16267;DHT22;8241;48.786;9.250;2022-11-15T20:44:47;11.20;99.90
16267;DHT22;8241;48.786;9.250;2022-11-15T20:47:14;11.10;99.90
16267;DHT22;8241;48.786;9.250;2022-11-15T20:49:49;11.10;99.90
16267;DHT22;8241;48.786;9.250;2022-11-15T20:52:17;11.10;99.90
16267;DHT22;8241;48.786;9.250;2022-11-15T20:54:56;11.10;99.90
16267;DHT22;8241;48.786;9.250;2022-11-15T21:00:20;11.10;99.90
16267;DHT22;8241;48.786;9.250;2022-11-15T21:02:50;11.00;99.90
16267;DHT22;8241;48.786;9.250;2022-11-15T21:05:17;11.10;99.90
16267;DHT22;8241;48.786;9.250;2022-11-15T21:07:46;11.10;99.90
16267;DHT22;8241;48.786;9.250;2022-11-15T21:10:14;11.10;99.90
16267;DHT22;8241;48.786;9.250;2022-11-15T21:12:58;11.10;99.90
16267;DHT22;8241;48.786;9.250;2022-11-15T21:15:25;11.00;99.90
16267;DHT22;8241;48.786;9.250;2022-11-15T21:17:51;11.00;99.90
16267;DHT22;8241;48.786;9.250;2022-11-15T21:20:25;11.00;99.90
16267;DHT22;8241;48.786;9.250;2022-11-15T21:22:52;11.00;99.90
16267;DHT22;8241;48.786;9.250;2022-11-15T21:25:20;11.20;99.90
16267;DHT22;8241;48.786;9.250;2022-11-15T21:27:47;11.30;99.90
16267;DHT22;8241;48.786;9.250;2022-11-15T21:30:14;11.40;99.90
16267;DHT22;8241;48.786;9.250;2022-11-15T21:32:43;11.40;99.90
16267;DHT22;8241;48.786;9.250;2022-11-15T21:35:10;11.60;99.90